»·PEaware :: N46AN KSBA-KBUR

N46AN :: KSBA-KBUR

FLIGHT INFORMATION

Flight Status: Arrived
Operator: Privately registered:
United States
More flights under this callsign
Pilot: Carson T. (20437)
Aircraft: CESSNA 172 SKYHAWK
(C172)
More flights by this aircraft type
Origin: KSBA Santa Barbara Mun
United States
Destination: KBUR Bob Hope-Burbank
United States
More flights between these airports :: More routes between these airports
Route:
File this flight plan on PilotEdge
Remarks:
Altitude:
(Current/Filed)
3,500ft
Speed:
(Current/Filed)
115kts
Departed: 16-Sep-18 10:41 AM
Arrived: 16-Sep-18 11:22 AM
Distance/Time
Traveled:
74nm/0:41
Distance/Time
To Go:
Arrived

Flight Plot

Page will automatically refresh every two minutes.


Map Options




Map Legend


Flown Route
Filed Route
Departure Airport
Arrival Airport
Navaid (VOR, NDB)
Fix

Horizontal Profiles

Position Reports

Time Latitude Longitude Heading Altitude Ground
Speed
16-Sep-18 10:27 34.433063 -119.834457 159 13ft 0kts
16-Sep-18 10:28 34.433063 -119.834457 159 13ft 0kts
16-Sep-18 10:29 34.433062 -119.834457 159 13ft 0kts
16-Sep-18 10:30 34.433062 -119.834456 159 13ft 0kts
16-Sep-18 10:31 34.433061 -119.834456 159 13ft 0kts
16-Sep-18 10:32 34.433061 -119.834456 159 13ft 0kts
16-Sep-18 10:33 34.433061 -119.834456 159 13ft 0kts
16-Sep-18 10:34 34.433060 -119.834456 159 13ft 0kts
16-Sep-18 10:35 34.433060 -119.834456 159 13ft 0kts
16-Sep-18 10:36 34.433060 -119.834455 159 13ft 0kts
16-Sep-18 10:37 34.433059 -119.834455 159 13ft 0kts
16-Sep-18 10:38 34.432343 -119.834623 251 13ft 4kts
16-Sep-18 10:39 34.431478 -119.837492 250 13ft 8kts
16-Sep-18 10:40 34.430673 -119.839785 242 13ft 0kts
16-Sep-18 10:41 34.430673 -119.839785 242 13ft 0kts
16-Sep-18 10:42 34.430331 -119.840237 183 13ft 10kts
16-Sep-18 10:43 34.412720 -119.834880 169 276ft 87kts
16-Sep-18 10:44 34.388493 -119.827366 168 836ft 90kts
16-Sep-18 10:45 34.363876 -119.819871 170 1363ft 91kts
16-Sep-18 10:46 34.336266 -119.813886 172 1560ft 110kts
16-Sep-18 10:47 34.325203 -119.787837 73 2168ft 93kts
16-Sep-18 10:48 34.332820 -119.760239 72 2787ft 80kts
16-Sep-18 10:49 34.340128 -119.734118 72 3332ft 84kts
16-Sep-18 10:50 34.348714 -119.703359 72 3522ft 115kts
16-Sep-18 10:51 34.359282 -119.663890 73 3501ft 126kts
16-Sep-18 10:52 34.370221 -119.623197 72 3500ft 127kts
16-Sep-18 10:53 34.381298 -119.582416 72 3500ft 127kts
16-Sep-18 10:54 34.386637 -119.540387 94 3500ft 126kts
16-Sep-18 10:55 34.381914 -119.498234 101 3500ft 126kts
16-Sep-18 10:56 34.375671 -119.456552 102 3500ft 125kts
16-Sep-18 10:57 34.369291 -119.414823 102 3500ft 126kts
16-Sep-18 10:58 34.362890 -119.373105 102 3500ft 126kts
16-Sep-18 10:59 34.356481 -119.331433 102 3500ft 126kts
16-Sep-18 11:00 34.350057 -119.289771 102 3500ft 126kts
16-Sep-18 11:01 34.343619 -119.248115 102 3500ft 126kts
16-Sep-18 11:02 34.337163 -119.206442 102 3500ft 126kts
16-Sep-18 11:03 34.330674 -119.164656 102 3500ft 126kts
16-Sep-18 11:04 34.324188 -119.122990 102 3500ft 126kts
16-Sep-18 11:05 34.317692 -119.081353 102 3500ft 126kts
16-Sep-18 11:06 34.311176 -119.039694 102 3500ft 126kts
16-Sep-18 11:07 34.304629 -118.998065 103 3499ft 126kts
16-Sep-18 11:08 34.297214 -118.956689 103 3500ft 126kts
16-Sep-18 11:09 34.290554 -118.915066 102 3500ft 126kts
16-Sep-18 11:10 34.283980 -118.873456 102 3500ft 126kts
16-Sep-18 11:11 34.277393 -118.831829 102 3500ft 126kts
16-Sep-18 11:12 34.270796 -118.790229 102 3500ft 126kts
16-Sep-18 11:13 34.264177 -118.748588 102 3500ft 126kts
16-Sep-18 11:14 34.257293 -118.707070 102 3500ft 126kts
16-Sep-18 11:15 34.250579 -118.665309 102 3500ft 126kts
16-Sep-18 11:16 34.243920 -118.623725 102 3500ft 126kts
16-Sep-18 11:17 34.237248 -118.582153 102 3500ft 126kts
16-Sep-18 11:18 34.230903 -118.542738 103 3472ft 99kts
16-Sep-18 11:19 34.225730 -118.511215 103 3501ft 95kts
16-Sep-18 11:20 34.220313 -118.479062 107 3444ft 103kts
16-Sep-18 11:21 34.210188 -118.444156 116 3383ft 115kts
16-Sep-18 11:22 34.198352 -118.409084 92 2415ft 100kts
16-Sep-18 11:23 34.198080 -118.379713 93 1012ft 80kts
16-Sep-18 11:24 34.197232 -118.364542 182 781ft 0kts
16-Sep-18 11:25 34.197129 -118.364547 182 781ft 5kts
16-Sep-18 11:26 34.195750 -118.365167 179 781ft 1kts
16-Sep-18 11:27 34.195735 -118.365167 179 781ft 0kts
16-Sep-18 11:28 34.195735 -118.365167 179 781ft 0kts
16-Sep-18 11:29 34.195735 -118.365167 179 781ft 0kts
16-Sep-18 11:30 34.195735 -118.365167 179 781ft 0kts
16-Sep-18 11:31 34.195735 -118.365167 179 781ft 0kts
16-Sep-18 11:32 34.195735 -118.365167 179 781ft 0kts
16-Sep-18 11:33 34.195735 -118.365167 179 781ft 0kts
16-Sep-18 11:34 34.195735 -118.365167 179 781ft 0kts
16-Sep-18 11:35 34.195735 -118.365167 179 781ft 0kts
16-Sep-18 11:36 34.195735 -118.365167 179 781ft 0kts
16-Sep-18 11:37 34.195735 -118.365167 179 781ft 0kts
16-Sep-18 11:38 34.195735 -118.365167 179 781ft 0kts
16-Sep-18 11:39 34.195735 -118.365167 179 781ft 0kts

Navigation Log

Ident Type
1. KSBA Airport
2. KBUR Airport